Time;durP1;ratioP1;P1;durP2;ratioP2;P2;SDS_P1;SDS_P2;PMS_P1;PMS_P2;Temp;Humidity;BMP_temperature;BMP_pressure;BME280_temperature;BME280_humidity;BME280_pressure;Samples;Min_cycle;Max_cycle;Signal;HPM_P1;HPM_P2
2021/12/25 00:01:44;;;;;;;;;;;;;;;;;;5077168;28;1593;-79
2021/12/25 00:04:10;;;;;;;;;;;;;;;;;;5063921;28;1693;-78
2021/12/25 00:06:35;;;;;;;;;;;;;;;;;;5066968;28;1889;-79
2021/12/25 00:09:00;;;;;;;;;;;;;;;;;;5065008;28;1303;-79
2021/12/25 00:11:26;;;;;;;;;;;;;;;;;;5086002;28;1149;-80
2021/12/25 00:13:53;;;;;;;;;;;;;;;;;;5065415;28;1223;-79
2021/12/25 00:16:18;;;;;;;;;;;;;;;;;;5065027;28;1176;-79
2021/12/25 00:18:43;;;;;;;;;;;;;;;;;;5065517;28;1164;-80
2021/12/25 00:21:09;;;;;;;;;;;;;;;;;;5059092;28;1299;-79
2021/12/25 00:23:35;;;;;;;;;;;;;;;;;;5046632;28;1265;-80
2021/12/25 00:26:07;;;;;;;;;;;;;;;;;;5087922;28;1898;-81
2021/12/25 00:31:27;;;;;;;;;;;;;;;;;;5083675;28;1113;-80
2021/12/25 00:33:58;;;;;;;;;;;;;;;;;;5086266;28;1093;-79
2021/12/25 00:36:23;;;;;;;;;;;;;;;;;;5065892;28;1314;-79
2021/12/25 00:38:49;;;;;;;;;;;;;;;;;;5090868;28;1164;-79
2021/12/25 00:41:17;;;;;;;;;;;;;;;;;;5080165;28;1425;-79
2021/12/25 00:43:43;;;;;;;;;;;;;;;;;;5052344;28;1200;-81
2021/12/25 00:46:08;;;;;;;;;;;;;;;;;;5047819;28;1914;-80
2021/12/25 00:48:33;;;;;;;;;;;;;;;;;;5051336;28;1208;-82
2021/12/25 00:51:02;;;;;;;;;;;;;;;;;;5050421;28;1221;-79
2021/12/25 00:53:27;;;;;;;;;;;;;;;;;;5051766;28;1129;-81
2021/12/25 00:55:53;;;;;;;;;;;;;;;;;;5034600;28;1182;-79
2021/12/25 00:58:18;;;;;;;;;;;;;;;;;;5050269;28;1203;-81
2021/12/25 01:00:43;;;;;;;;;;;;;;;;;;5050111;28;1286;-80
2021/12/25 01:03:09;;;;;;;;;;;;;;;;;;5047703;28;1305;-80
2021/12/25 01:05:34;;;;;;;;;;;;;;;;;;5050248;28;1941;-80
2021/12/25 01:08:06;;;;;;;;;;;;;;;;;;5068368;28;1196;-81
2021/12/25 01:10:33;;;;;;;;;;;;;;;;;;5050283;28;1423;-80
2021/12/25 01:15:41;;;;;;;;;;;;;;;;;;5071776;28;1116;-80
2021/12/25 01:30:53;;;;;;;;;;;;;;;;;;5049400;28;1119;-81
2021/12/25 01:33:33;;;;;;;;;;;;;;;;;;5030357;28;1297;-80
2021/12/25 01:49:07;;;;;;;;;;;;;;;;;;5069573;28;1058;-81
2021/12/25 01:51:32;;;;;;;;;;;;;;;;;;5068269;28;1158;-81
2021/12/25 01:53:58;;;;;;;;;;;;;;;;;;5068550;28;1370;-80
2021/12/25 01:56:23;;;;;;;;;;;;;;;;;;5050776;28;1160;-80
2021/12/25 01:58:58;;;;;;;;;;;;;;;;;;5067745;28;1155;-80
2021/12/25 02:01:23;;;;;;;;;;;;;;;;;;5085805;28;1192;-81
2021/12/25 02:03:48;;;;;;;;;;;;;;;;;;5068714;28;1153;-81
2021/12/25 02:06:14;;;;;;;;;;;;;;;;;;5053817;28;1893;-80
2021/12/25 02:08:40;;;;;;;;;;;;;;;;;;5069877;28;1307;-81
2021/12/25 02:11:10;;;;;;;;;;;;;;;;;;5067525;28;1160;-80
2021/12/25 02:13:37;;;;;;;;;;;;;;;;;;5067715;28;1184;-82
2021/12/25 02:16:11;;;;;;;;;;;;;;;;;;5086286;28;1304;-81
2021/12/25 02:21:26;;;;;;;;;;;;;;;;;;5071134;28;1070;-81
2021/12/25 02:23:53;;;;;;;;;;;;;;;;;;5067855;28;1348;-81
2021/12/25 02:26:18;;;;;;;;;;;;;;;;;;5067558;28;1885;-81
2021/12/25 02:28:54;;;;;;;;;;;;;;;;;;5053047;28;1175;-81
2021/12/25 02:31:20;;;;;;;;;;;;;;;;;;5066073;28;1247;-81
2021/12/25 02:33:46;;;;;;;;;;;;;;;;;;5069505;28;1353;-81
2021/12/25 02:36:13;;;;;;;;;;;;;;;;;;5068796;28;1310;-81
2021/12/25 02:38:39;;;;;;;;;;;;;;;;;;5069385;28;1126;-81
2021/12/25 02:41:04;;;;;;;;;;;;;;;;;;5023290;28;1237263;-82
2021/12/25 02:43:30;;;;;;;;;;;;;;;;;;5069481;28;1180;-79
2021/12/25 02:45:56;;;;;;;;;;;;;;;;;;5068996;28;1910;-80
2021/12/25 02:48:21;;;;;;;;;;;;;;;;;;5068244;28;1070;-79
2021/12/25 02:50:47;;;;;;;;;;;;;;;;;;5088126;28;1353;-80
2021/12/25 02:53:13;;;;;;;;;;;;;;;;;;5069877;28;1173;-80
2021/12/25 02:55:39;;;;;;;;;;;;;;;;;;5054480;28;1193;-79
2021/12/25 02:58:05;;;;;;;;;;;;;;;;;;5069857;28;1227;-80
2021/12/25 03:00:33;;;;;;;;;;;;;;;;;;5070890;28;1506;-81
2021/12/25 03:03:00;;;;;;;;;;;;;;;;;;5072405;28;1205;-81
2021/12/25 03:05:25;;;;;;;;;;;;;;;;;;5071406;28;1969;-80
2021/12/25 03:07:50;;;;;;;;;;;;;;;;;;5072872;28;1210;-81
2021/12/25 03:10:17;;;;;;;;;;;;;;;;;;5072974;28;1278;-80
2021/12/25 03:13:16;;;;;;;;;;;;;;;;;;5056482;28;1489;-80
2021/12/25 03:15:45;;;;;;;;;;;;;;;;;;5088173;28;1193;-81
2021/12/25 03:18:11;;;;;;;;;;;;;;;;;;5071803;28;1259;-81
2021/12/25 03:20:40;;;;;;;;;;;;;;;;;;5071121;28;1212;-80
2021/12/25 03:23:05;;;;;;;;;;;;;;;;;;5072835;28;1310;-81
2021/12/25 03:25:30;;;;;;;;;;;;;;;;;;5071072;28;1898;-80
2021/12/25 03:27:57;;;;;;;;;;;;;;;;;;5091013;28;1199;-80
2021/12/25 03:30:24;;;;;;;;;;;;;;;;;;5088777;28;1173;-80
2021/12/25 03:32:49;;;;;;;;;;;;;;;;;;5071869;28;1220;-80
2021/12/25 03:35:24;;;;;;;;;;;;;;;;;;5071646;28;1420;-79
2021/12/25 03:37:49;;;;;;;;;;;;;;;;;;5070819;28;1189;-80
2021/12/25 03:40:15;;;;;;;;;;;;;;;;;;5089728;28;1133;-80
2021/12/25 03:42:40;;;;;;;;;;;;;;;;;;5053527;28;1208;-80
2021/12/25 03:45:06;;;;;;;;;;;;;;;;;;5070401;28;1973;-80
2021/12/25 03:47:36;;;;;;;;;;;;;;;;;;5069050;28;1178;-80
2021/12/25 03:53:39;;;;;;;;;;;;;;;;;;5075487;28;1025;-81
2021/12/25 03:58:28;;;;;;;;;;;;;;;;;;5091105;28;974;-80
2021/12/25 04:00:59;;;;;;;;;;;;;;;;;;5089634;28;1148;-81
2021/12/25 04:04:00;;;;;;;;;;;;;;;;;;5054327;28;1363;-80
2021/12/25 04:06:26;;;;;;;;;;;;;;;;;;5071660;28;1886;-80
2021/12/25 04:08:52;;;;;;;;;;;;;;;;;;5091121;28;1172;-79
2021/12/25 04:11:27;;;;;;;;;;;;;;;;;;5072345;28;1252;-81
2021/12/25 04:13:53;;;;;;;;;;;;;;;;;;5056657;28;1348;-80
2021/12/25 04:16:22;;;;;;;;;;;;;;;;;;5072013;28;1105;-80
2021/12/25 04:18:47;;;;;;;;;;;;;;;;;;5071962;28;1135;-80
2021/12/25 04:21:13;;;;;;;;;;;;;;;;;;5056541;28;1345;-81
2021/12/25 04:23:40;;;;;;;;;;;;;;;;;;5068618;28;1167;-81
2021/12/25 04:26:06;;;;;;;;;;;;;;;;;;5069561;28;1961;-81
2021/12/25 04:28:44;;;;;;;;;;;;;;;;;;5087918;28;1164;-81
2021/12/25 05:03:54;;;;;;;;;;;;;;;;;;5089365;28;973;-80
2021/12/25 05:06:22;;;;;;;;;;;;;;;;;;5052194;28;1881;-79
2021/12/25 05:08:48;;;;;;;;;;;;;;;;;;5052572;28;1204;-79
2021/12/25 05:11:17;;;;;;;;;;;;;;;;;;5055836;28;1226;-79
2021/12/25 05:13:43;;;;;;;;;;;;;;;;;;5053449;28;1220;-79
2021/12/25 05:16:09;;;;;;;;;;;;;;;;;;5051146;28;1225;-80
2021/12/25 05:18:34;;;;;;;;;;;;;;;;;;5050299;28;1286;-79
2021/12/25 05:20:59;;;;;;;;;;;;;;;;;;5070682;28;1239;-79
2021/12/25 05:23:29;;;;;;;;;;;;;;;;;;5054834;28;1275;-78
2021/12/25 05:25:54;;;;;;;;;;;;;;;;;;5070008;28;1901;-81
2021/12/25 05:28:35;;;;;;;;;;;;;;;;;;5070392;28;1149;-80
2021/12/25 05:31:00;;;;;;;;;;;;;;;;;;5068721;28;1243;-79
2021/12/25 05:33:26;;;;;;;;;;;;;;;;;;5086182;28;1066;-80
2021/12/25 05:35:51;;;;;;;;;;;;;;;;;;5070431;28;1282;-80
2021/12/25 05:38:17;;;;;;;;;;;;;;;;;;5053531;28;1442;-80
2021/12/25 05:40:43;;;;;;;;;;;;;;;;;;5085535;28;1225;-79
2021/12/25 05:43:09;;;;;;;;;;;;;;;;;;5088602;28;1156;-79
2021/12/25 05:45:34;;;;;;;;;;;;;;;;;;5087202;28;1914;-80
2021/12/25 05:47:59;;;;;;;;;;;;;;;;;;5069624;28;1188;-79
2021/12/25 05:50:25;;;;;;;;;;;;;;;;;;5069233;28;1300;-80
2021/12/25 05:52:51;;;;;;;;;;;;;;;;;;5052697;28;1213;-79
2021/12/25 05:55:16;;;;;;;;;;;;;;;;;;5088802;28;1215;-80
2021/12/25 05:57:41;;;;;;;;;;;;;;;;;;5068043;28;1070;-80
2021/12/25 06:00:08;;;;;;;;;;;;;;;;;;5067303;28;1232;-80
2021/12/25 06:02:35;;;;;;;;;;;;;;;;;;5068016;28;1212;-80
2021/12/25 06:05:03;;;;;;;;;;;;;;;;;;5088144;28;1969;-79
2021/12/25 06:07:29;;;;;;;;;;;;;;;;;;5053364;28;1292;-79
2021/12/25 06:09:54;;;;;;;;;;;;;;;;;;5071305;28;1122;-80
2021/12/25 06:12:20;;;;;;;;;;;;;;;;;;5070523;28;1272;-79
2021/12/25 06:14:47;;;;;;;;;;;;;;;;;;5050951;28;1285;-79
2021/12/25 06:17:12;;;;;;;;;;;;;;;;;;5082177;28;1160;-78
2021/12/25 06:19:38;;;;;;;;;;;;;;;;;;5068275;28;1068;-78
2021/12/25 06:22:04;;;;;;;;;;;;;;;;;;5087945;28;1077;-79
2021/12/25 06:24:30;;;;;;;;;;;;;;;;;;5053229;28;1287;-79
2021/12/25 06:26:56;;;;;;;;;;;;;;;;;;5052897;28;1949;-80
2021/12/25 06:29:23;;;;;;;;;;;;;;;;;;5068947;28;1111;-80
2021/12/25 06:31:50;;;;;;;;;;;;;;;;;;5087109;28;1243;-78
2021/12/25 06:34:15;;;;;;;;;;;;;;;;;;5068411;28;1233;-79
2021/12/25 06:36:40;;;;;;;;;;;;;;;;;;5067238;28;1319;-80
2021/12/25 06:39:07;;;;;;;;;;;;;;;;;;5068931;28;1220;-80
2021/12/25 06:41:33;;;;;;;;;;;;;;;;;;5069481;28;1252;-79
2021/12/25 06:43:58;;;;;;;;;;;;;;;;;;5065906;28;1426;-80
2021/12/25 06:46:24;;;;;;;;;;;;;;;;;;5053560;28;2005;-78
2021/12/25 06:48:49;;;;;;;;;;;;;;;;;;5048615;28;1165;-79
2021/12/25 06:51:14;;;;;;;;;;;;;;;;;;5068129;28;1219;-79
2021/12/25 06:53:40;;;;;;;;;;;;;;;;;;5065581;28;1211;-80
2021/12/25 06:56:05;;;;;;;;;;;;;;;;;;5068016;28;1210;-80
2021/12/25 06:58:30;;;;;;;;;;;;;;;;;;5051848;28;1209;-80
2021/12/25 07:00:55;;;;;;;;;;;;;;;;;;5049252;28;1315;-79
2021/12/25 07:03:21;;;;;;;;;;;;;;;;;;5051426;28;1153;-80
2021/12/25 07:05:46;;;;;;;;;;;;;;;;;;5050516;28;1988;-79
2021/12/25 07:08:11;;;;;;;;;;;;;;;;;;5069600;28;1207;-79
2021/12/25 07:10:37;;;;;;;;;;;;;;;;;;5069542;28;1271;-79
2021/12/25 07:13:03;;;;;;;;;;;;;;;;;;5069609;28;1230;-79
2021/12/25 07:15:28;;;;;;;;;;;;;;;;;;5068421;28;1207;-79
2021/12/25 07:17:53;;;;;;;;;;;;;;;;;;5066506;28;1153;-79
2021/12/25 07:20:19;;;;;;;;;;;;;;;;;;5067970;28;1303;-79
2021/12/25 07:22:44;;;;;;;;;;;;;;;;;;5066523;28;1172;-79
2021/12/25 07:25:09;;;;;;;;;;;;;;;;;;5068518;28;1900;-80
2021/12/25 07:27:35;;;;;;;;;;;;;;;;;;5086944;28;1106;-79
2021/12/25 07:30:02;;;;;;;;;;;;;;;;;;5064691;28;1305;-79
2021/12/25 07:32:28;;;;;;;;;;;;;;;;;;5067267;28;1319;-81
2021/12/25 07:34:53;;;;;;;;;;;;;;;;;;5066108;28;1157;-81
2021/12/25 07:37:18;;;;;;;;;;;;;;;;;;5067539;28;1217;-81
2021/12/25 07:39:44;;;;;;;;;;;;;;;;;;5065516;28;1234;-80
2021/12/25 07:42:11;;;;;;;;;;;;;;;;;;5048488;28;1325;-81
2021/12/25 07:44:36;;;;;;;;;;;;;;;;;;5065195;28;1246;-82
2021/12/25 07:47:04;;;;;;;;;;;;;;;;;;5048283;28;1918;-79
2021/12/25 07:49:31;;;;;;;;;;;;;;;;;;5066067;28;1130;-80
2021/12/25 07:51:57;;;;;;;;;;;;;;;;;;5065786;28;1165;-79
2021/12/25 07:54:22;;;;;;;;;;;;;;;;;;5051484;28;1270;-79
2021/12/25 07:56:47;;;;;;;;;;;;;;;;;;5066229;28;1374;-79
2021/12/25 07:59:13;;;;;;;;;;;;;;;;;;5065402;28;1254;-79
2021/12/25 08:01:43;;;;;;;;;;;;;;;;;;5067144;28;1265;-79
2021/12/25 08:04:10;;;;;;;;;;;;;;;;;;5049862;28;1165;-79
2021/12/25 08:06:36;;;;;;;;;;;;;;;;;;5068394;28;1954;-80
2021/12/25 08:09:03;;;;;;;;;;;;;;;;;;5065601;28;1081;-79
2021/12/25 08:11:30;;;;;;;;;;;;;;;;;;5050949;28;1199;-80
2021/12/25 08:13:56;;;;;;;;;;;;;;;;;;5047453;28;1203;-79
2021/12/25 08:16:21;;;;;;;;;;;;;;;;;;5086296;28;1224;-78
2021/12/25 08:18:47;;;;;;;;;;;;;;;;;;5063644;28;1211;-79
2021/12/25 08:21:13;;;;;;;;;;;;;;;;;;5050545;28;1288;-80
2021/12/25 08:23:38;;;;;;;;;;;;;;;;;;5050784;28;1294;-79
2021/12/25 08:26:04;;;;;;;;;;;;;;;;;;5049090;28;1890;-79
2021/12/25 08:28:30;;;;;;;;;;;;;;;;;;5086304;28;1124;-81
2021/12/25 08:30:55;;;;;;;;;;;;;;;;;;5065478;28;1213;-81
2021/12/25 08:33:21;;;;;;;;;;;;;;;;;;5083182;28;1129;-81
2021/12/25 08:35:47;;;;;;;;;;;;;;;;;;5048716;28;1400;-80
2021/12/25 08:38:12;;;;;;;;;;;;;;;;;;5067826;28;1214;-81
2021/12/25 08:40:38;;;;;;;;;;;;;;;;;;5066141;28;1219;-80
2021/12/25 08:43:05;;;;;;;;;;;;;;;;;;5065139;28;1213;-81
2021/12/25 08:47:56;;;;;;;;;;;;;;;;;;5086269;28;1137;-80
2021/12/25 08:50:21;;;;;;;;;;;;;;;;;;5072160;28;1269;-81
2021/12/25 08:52:52;;;;;;;;;;;;;;;;;;5068813;28;1164;-79
2021/12/25 08:55:18;;;;;;;;;;;;;;;;;;5069142;28;1166;-79
2021/12/25 08:57:43;;;;;;;;;;;;;;;;;;5069827;28;1397;-79
2021/12/25 09:00:09;;;;;;;;;;;;;;;;;;5050189;28;1272;-79
2021/12/25 09:02:35;;;;;;;;;;;;;;;;;;5087811;28;1302;-80
2021/12/25 09:05:01;;;;;;;;;;;;;;;;;;5065271;28;1941;-80
2021/12/25 09:07:26;;;;;;;;;;;;;;;;;;5068242;28;1212;-79
2021/12/25 09:09:51;;;;;;;;;;;;;;;;;;5065639;28;1160;-80
2021/12/25 09:12:19;;;;;;;;;;;;;;;;;;5063070;28;1223;-79
2021/12/25 09:14:45;;;;;;;;;;;;;;;;;;5050571;28;1318;-80
2021/12/25 09:17:19;;;;;;;;;;;;;;;;;;5064436;28;1248;-79
2021/12/25 09:19:45;;;;;;;;;;;;;;;;;;5067129;28;1200;-80
2021/12/25 09:22:11;;;;;;;;;;;;;;;;;;5067850;28;1165;-79
2021/12/25 09:24:37;;;;;;;;;;;;;;;;;;5086903;28;1227;-79
2021/12/25 09:27:03;;;;;;;;;;;;;;;;;;5068174;28;1947;-78
2021/12/25 09:29:28;;;;;;;;;;;;;;;;;;5087412;28;1311;-78
2021/12/25 09:31:56;;;;;;;;;;;;;;;;;;5086906;28;1200;-79
2021/12/25 09:34:22;;;;;;;;;;;;;;;;;;5064434;28;1130;-78
2021/12/25 09:36:47;;;;;;;;;;;;;;;;;;5069475;28;1218;-79
2021/12/25 09:39:12;;;;;;;;;;;;;;;;;;5067271;28;1222;-79
2021/12/25 09:41:37;;;;;;;;;;;;;;;;;;5069102;28;1569;-79
2021/12/25 09:44:04;;;;;;;;;;;;;;;;;;5050628;28;1257;-79
2021/12/25 09:46:29;;;;;;;;;;;;;;;;;;5086132;28;1897;-79
2021/12/25 09:48:57;;;;;;;;;;;;;;;;;;5047523;28;1209;-75
2021/12/25 09:51:22;;;;;;;;;;;;;;;;;;5063612;28;1153;-76
2021/12/25 09:54:06;;;;;;;;;;;;;;;;;;5068070;28;1212;-79
2021/12/25 09:56:32;;;;;;;;;;;;;;;;;;5087099;28;1153;-80
2021/12/25 09:58:57;;;;;;;;;;;;;;;;;;5035016;28;1308;-80
2021/12/25 10:01:38;;;;;;;;;;;;;;;;;;5046829;28;1258;-78
2021/12/25 10:04:04;;;;;;;;;;;;;;;;;;5078904;28;1126;-79
2021/12/25 10:06:33;;;;;;;;;;;;;;;;;;5070567;28;1980;-80
2021/12/25 10:09:10;;;;;;;;;;;;;;;;;;5066663;28;1269;-78
2021/12/25 10:11:35;;;;;;;;;;;;;;;;;;5065236;28;1236;-78
2021/12/25 10:14:01;;;;;;;;;;;;;;;;;;5049387;28;1252;-77
2021/12/25 10:16:28;;;;;;;;;;;;;;;;;;5069814;28;1163;-75
2021/12/25 10:19:16;;;;;;;;;;;;;;;;;;5076744;28;1176;-77
2021/12/25 10:21:41;;;;;;;;;;;;;;;;;;5062367;28;1200;-80
2021/12/25 10:24:07;;;;;;;;;;;;;;;;;;5083768;28;1149;-77
2021/12/25 10:26:33;;;;;;;;;;;;;;;;;;5085771;28;1893;-78
2021/12/25 10:28:59;;;;;;;;;;;;;;;;;;5097564;28;1353;-78
2021/12/25 10:31:34;;;;;;;;;;;;;;;;;;5047350;28;1215;-79
2021/12/25 10:34:11;;;;;;;;;;;;;;;;;;5077219;28;1220;-77
2021/12/25 10:36:36;;;;;;;;;;;;;;;;;;5087100;28;1180;-78
2021/12/25 10:39:08;;;;;;;;;;;;;;;;;;5066872;28;1217;-78
2021/12/25 10:41:36;;;;;;;;;;;;;;;;;;5062328;28;1350;-79
2021/12/25 10:44:18;;;;;;;;;;;;;;;;;;5053154;28;1306;-75
2021/12/25 10:47:23;;;;;;;;;;;;;;;;;;5067183;28;1960;-75
2021/12/25 10:49:49;;;;;;;;;;;;;;;;;;5085760;28;1117;-78
2021/12/25 10:52:20;;;;;;;;;;;;;;;;;;5065420;28;1280;-77
2021/12/25 10:54:47;;;;;;;;;;;;;;;;;;5060762;28;1251;-76
2021/12/25 10:57:34;;;;;;;;;;;;;;;;;;5068259;28;1227;-76
2021/12/25 11:00:08;;;;;;;;;;;;;;;;;;5060673;28;1388;-77
2021/12/25 11:02:35;;;;;;;;;;;;;;;;;;5084623;28;1299;-77
2021/12/25 11:05:13;;;;;;;;;;;;;;;;;;5083988;28;1952;-77
2021/12/25 11:07:38;;;;;;;;;;;;;;;;;;5066176;28;1333;-77
2021/12/25 11:10:12;;;;;;;;;;;;;;;;;;5057876;28;1191;-78
2021/12/25 11:12:37;;;;;;;;;;;;;;;;;;5086076;28;1106;-76
2021/12/25 11:15:19;;;;;;;;;;;;;;;;;;5063146;28;1443;-77
2021/12/25 11:17:50;;;;;;;;;;;;;;;;;;5088587;28;1148;-77
2021/12/25 11:20:23;;;;;;;;;;;;;;;;;;5069426;28;1109;-77
2021/12/25 11:22:53;;;;;;;;;;;;;;;;;;5068674;28;1316;-77
2021/12/25 11:25:26;;;;;;;;;;;;;;;;;;5074834;28;1893;-77
2021/12/25 11:27:52;;;;;;;;;;;;;;;;;;5086655;28;1188;-77
2021/12/25 11:30:20;;;;;;;;;;;;;;;;;;5064909;28;1370;-77
2021/12/25 11:32:46;;;;;;;;;;;;;;;;;;5033703;28;1382;-77
2021/12/25 11:35:13;;;;;;;;;;;;;;;;;;5065554;28;1454;-76
2021/12/25 11:37:38;;;;;;;;;;;;;;;;;;5084215;28;1055;-75
2021/12/25 11:40:10;;;;;;;;;;;;;;;;;;5081707;28;1267;-76
2021/12/25 11:42:45;;;;;;;;;;;;;;;;;;5047894;28;1300;-76
2021/12/25 11:45:18;;;;;;;;;;;;;;;;;;5043681;28;1910;-76
2021/12/25 11:47:47;;;;;;;;;;;;;;;;;;5063548;28;1204;-79
2021/12/25 11:50:16;;;;;;;;;;;;;;;;;;5063569;28;1228;-79
2021/12/25 11:52:48;;;;;;;;;;;;;;;;;;5047527;28;1479;-79
2021/12/25 11:55:35;;;;;;;;;;;;;;;;;;5064507;28;1122;-78
2021/12/25 11:58:36;;;;;;;;;;;;;;;;;;5047059;28;1275;-80
2021/12/25 12:01:15;;;;;;;;;;;;;;;;;;5051541;28;1128;-81
2021/12/25 12:03:46;;;;;;;;;;;;;;;;;;5044885;28;1137;-80
2021/12/25 12:06:13;;;;;;;;;;;;;;;;;;5063922;28;1953;-83
2021/12/25 12:08:53;;;;;;;;;;;;;;;;;;5047300;28;1318;-81
2021/12/25 12:11:23;;;;;;;;;;;;;;;;;;5064532;28;1216;-82
2021/12/25 12:14:11;;;;;;;;;;;;;;;;;;5047148;28;1242;-80
2021/12/25 12:16:41;;;;;;;;;;;;;;;;;;5029895;28;1356;-81
2021/12/25 12:19:25;;;;;;;;;;;;;;;;;;5045440;28;1485;-80
2021/12/25 12:21:50;;;;;;;;;;;;;;;;;;5051244;28;1384;-77
2021/12/25 12:24:39;;;;;;;;;;;;;;;;;;5050730;28;1252;-78
2021/12/25 12:27:11;;;;;;;;;;;;;;;;;;5050403;28;1949;-79
2021/12/25 12:29:44;;;;;;;;;;;;;;;;;;5048486;28;1300;-80
2021/12/25 12:32:18;;;;;;;;;;;;;;;;;;5067453;28;1169;-80
2021/12/25 12:34:44;;;;;;;;;;;;;;;;;;5069060;28;1105;-79
2021/12/25 12:37:16;;;;;;;;;;;;;;;;;;5049110;28;1118;-79
2021/12/25 12:39:41;;;;;;;;;;;;;;;;;;5069484;28;1037;-79
2021/12/25 12:42:14;;;;;;;;;;;;;;;;;;5078634;28;1338;-79
2021/12/25 12:44:39;;;;;;;;;;;;;;;;;;5067274;28;1211;-77
2021/12/25 12:47:15;;;;;;;;;;;;;;;;;;5070138;28;1973;-79
2021/12/25 12:49:53;;;;;;;;;;;;;;;;;;5070240;28;1363;-78
2021/12/25 12:52:31;;;;;;;;;;;;;;;;;;5085730;28;1018;-78
2021/12/25 12:54:59;;;;;;;;;;;;;;;;;;5088318;28;1140;-79
2021/12/25 12:57:30;;;;;;;;;;;;;;;;;;5067253;28;1361;-78
2021/12/25 12:59:56;;;;;;;;;;;;;;;;;;5067930;28;1279;-80
2021/12/25 13:02:23;;;;;;;;;;;;;;;;;;5084947;28;1105;-79
2021/12/25 13:05:00;;;;;;;;;;;;;;;;;;5088716;28;1290;-80
2021/12/25 13:07:27;;;;;;;;;;;;;;;;;;5068006;28;1191;-78
2021/12/25 13:09:57;;;;;;;;;;;;;;;;;;5070385;28;1203;-78
2021/12/25 13:12:39;;;;;;;;;;;;;;;;;;5064821;28;1592;-79
2021/12/25 13:15:10;;;;;;;;;;;;;;;;;;5066858;28;1269;-79
2021/12/25 13:17:35;;;;;;;;;;;;;;;;;;5068255;28;1231;-79
2021/12/25 13:20:01;;;;;;;;;;;;;;;;;;5051870;28;1353;-78
2021/12/25 13:22:26;;;;;;;;;;;;;;;;;;5049861;28;1364;-79
2021/12/25 13:25:05;;;;;;;;;;;;;;;;;;5087434;28;1168;-80
2021/12/25 13:27:30;;;;;;;;;;;;;;;;;;5066870;28;1408;-79
2021/12/25 13:30:02;;;;;;;;;;;;;;;;;;5067427;28;1216;-78
2021/12/25 13:32:29;;;;;;;;;;;;;;;;;;5084541;28;1121;-79
2021/12/25 13:34:55;;;;;;;;;;;;;;;;;;5069049;28;1153;-78
2021/12/25 13:37:20;;;;;;;;;;;;;;;;;;5067166;28;1042;-79
2021/12/25 13:39:46;;;;;;;;;;;;;;;;;;5087745;28;1220;-78
2021/12/25 13:42:16;;;;;;;;;;;;;;;;;;5051026;28;1278;-82
2021/12/25 13:44:42;;;;;;;;;;;;;;;;;;5049175;28;1204;-79
2021/12/25 13:47:26;;;;;;;;;;;;;;;;;;5067608;28;1979;-79
2021/12/25 13:49:55;;;;;;;;;;;;;;;;;;5069353;28;1173;-77
2021/12/25 13:52:20;;;;;;;;;;;;;;;;;;5064620;28;1408;-78
2021/12/25 13:54:54;;;;;;;;;;;;;;;;;;5086117;28;1132;-79
2021/12/25 13:57:20;;;;;;;;;;;;;;;;;;5085420;28;1216;-80
2021/12/25 13:59:53;;;;;;;;;;;;;;;;;;5085238;28;1111;-79
2021/12/25 14:02:19;;;;;;;;;;;;;;;;;;5067235;28;1322;-77
2021/12/25 14:04:45;;;;;;;;;;;;;;;;;;5090001;28;1156;-79
2021/12/25 14:07:14;;;;;;;;;;;;;;;;;;5070495;28;1890;-79
2021/12/25 14:09:52;;;;;;;;;;;;;;;;;;5051763;28;1243;-80
2021/12/25 14:12:21;;;;;;;;;;;;;;;;;;5066721;28;1271;-79
2021/12/25 14:14:46;;;;;;;;;;;;;;;;;;5066972;28;1224;-80
2021/12/25 14:17:22;;;;;;;;;;;;;;;;;;5068328;28;1223;-80
2021/12/25 14:19:47;;;;;;;;;;;;;;;;;;5085230;28;1086;-81
2021/12/25 14:22:12;;;;;;;;;;;;;;;;;;5069457;28;1268;-80
2021/12/25 14:24:45;;;;;;;;;;;;;;;;;;5066992;28;1203;-78
2021/12/25 14:27:22;;;;;;;;;;;;;;;;;;5068321;28;1886;-78
2021/12/25 14:29:47;;;;;;;;;;;;;;;;;;5084020;28;1153;-79
2021/12/25 14:32:23;;;;;;;;;;;;;;;;;;5085709;28;1258;-78
2021/12/25 14:34:49;;;;;;;;;;;;;;;;;;5068619;28;1576;-77
2021/12/25 14:37:16;;;;;;;;;;;;;;;;;;5068274;28;1439;-76
2021/12/25 14:39:41;;;;;;;;;;;;;;;;;;5066445;28;1238;-75
2021/12/25 14:42:07;;;;;;;;;;;;;;;;;;5083291;28;1447;-76
2021/12/25 14:44:32;;;;;;;;;;;;;;;;;;5084358;28;1164;-80
2021/12/25 14:47:07;;;;;;;;;;;;;;;;;;5068938;28;1971;-78
2021/12/25 14:49:39;;;;;;;;;;;;;;;;;;5055134;28;1282;-79
2021/12/25 14:52:04;;;;;;;;;;;;;;;;;;5061692;28;1208;-79
2021/12/25 14:54:31;;;;;;;;;;;;;;;;;;5067832;28;1204;-79
2021/12/25 14:56:58;;;;;;;;;;;;;;;;;;5067705;28;1152;-78
2021/12/25 14:59:25;;;;;;;;;;;;;;;;;;5090978;28;1350;-78
2021/12/25 15:01:52;;;;;;;;;;;;;;;;;;5085724;28;1256;-77
2021/12/25 15:04:25;;;;;;;;;;;;;;;;;;5093645;28;1300;-79
2021/12/25 15:06:51;;;;;;;;;;;;;;;;;;5097972;28;1894;-78
2021/12/25 15:09:19;;;;;;;;;;;;;;;;;;5093663;28;1299;-78
2021/12/25 15:11:47;;;;;;;;;;;;;;;;;;5097449;28;1319;-79
2021/12/25 15:14:14;;;;;;;;;;;;;;;;;;5097584;28;1321;-78
2021/12/25 15:16:39;;;;;;;;;;;;;;;;;;5085239;28;1210;-79
2021/12/25 15:19:06;;;;;;;;;;;;;;;;;;5065252;28;1645;-78
2021/12/25 15:21:51;;;;;;;;;;;;;;;;;;5084167;28;1215;-80
2021/12/25 15:24:18;;;;;;;;;;;;;;;;;;5064576;28;1405;-79
2021/12/25 15:26:45;;;;;;;;;;;;;;;;;;5066921;28;1886;-79
2021/12/25 15:29:11;;;;;;;;;;;;;;;;;;5064510;28;1311;-79
2021/12/25 15:31:36;;;;;;;;;;;;;;;;;;5048352;28;1581;-80
2021/12/25 15:34:06;;;;;;;;;;;;;;;;;;5083226;28;1169;-80
2021/12/25 15:36:33;;;;;;;;;;;;;;;;;;5082907;28;1089;-78
2021/12/25 15:39:08;;;;;;;;;;;;;;;;;;5065367;28;1306;-79
2021/12/25 15:41:33;;;;;;;;;;;;;;;;;;5059827;28;1505;-79
2021/12/25 15:43:58;;;;;;;;;;;;;;;;;;5067860;28;1172;-80
2021/12/25 15:46:26;;;;;;;;;;;;;;;;;;5049931;28;1918;-80
2021/12/25 15:48:51;;;;;;;;;;;;;;;;;;5047117;28;1228;-79
2021/12/25 15:51:16;;;;;;;;;;;;;;;;;;5067282;28;1093;-79
2021/12/25 15:53:42;;;;;;;;;;;;;;;;;;5046763;28;1172;-78
2021/12/25 15:56:07;;;;;;;;;;;;;;;;;;5050478;28;1259;-79
2021/12/25 15:58:32;;;;;;;;;;;;;;;;;;5081904;28;1113;-79
2021/12/25 16:00:59;;;;;;;;;;;;;;;;;;5049486;28;1321;-79
2021/12/25 16:03:32;;;;;;;;;;;;;;;;;;5083281;28;1204;-79
2021/12/25 16:05:59;;;;;;;;;;;;;;;;;;5066882;28;1948;-79
2021/12/25 16:08:27;;;;;;;;;;;;;;;;;;5066158;28;1287;-80
2021/12/25 16:10:53;;;;;;;;;;;;;;;;;;5066543;28;1227;-78
2021/12/25 16:13:22;;;;;;;;;;;;;;;;;;5066381;28;1228;-78
2021/12/25 16:15:48;;;;;;;;;;;;;;;;;;5047173;28;1248;-79
2021/12/25 16:18:13;;;;;;;;;;;;;;;;;;5063955;28;1370;-78
2021/12/25 16:20:39;;;;;;;;;;;;;;;;;;5048399;28;1180;-77
2021/12/25 16:23:05;;;;;;;;;;;;;;;;;;5066431;28;1524;-78
2021/12/25 16:25:31;;;;;;;;;;;;;;;;;;5065136;28;1973;-79
2021/12/25 16:27:57;;;;;;;;;;;;;;;;;;5067783;28;1306;-79
2021/12/25 16:30:24;;;;;;;;;;;;;;;;;;5049085;28;1469;-80
2021/12/25 16:32:49;;;;;;;;;;;;;;;;;;5065058;28;1366;-79
2021/12/25 16:35:15;;;;;;;;;;;;;;;;;;5048317;28;1361;-79
2021/12/25 16:37:40;;;;;;;;;;;;;;;;;;5064579;28;1282;-80
2021/12/25 16:40:06;;;;;;;;;;;;;;;;;;5064897;28;1169;-80
2021/12/25 16:42:35;;;;;;;;;;;;;;;;;;5085355;28;1278;-79
2021/12/25 16:45:00;;;;;;;;;;;;;;;;;;5064974;28;1151;-79
2021/12/25 16:47:26;;;;;;;;;;;;;;;;;;5063432;28;1910;-78
2021/12/25 16:49:51;;;;;;;;;;;;;;;;;;5048319;28;1397;-79
2021/12/25 16:52:16;;;;;;;;;;;;;;;;;;5065321;28;1267;-79
2021/12/25 16:54:42;;;;;;;;;;;;;;;;;;5047453;28;1173;-79
2021/12/25 16:57:07;;;;;;;;;;;;;;;;;;5084927;28;1164;-79
2021/12/25 16:59:33;;;;;;;;;;;;;;;;;;5064240;28;1179;-79
2021/12/25 17:01:59;;;;;;;;;;;;;;;;;;5066715;28;1176;-79
2021/12/25 17:04:26;;;;;;;;;;;;;;;;;;5065570;28;1247;-79
2021/12/25 17:06:51;;;;;;;;;;;;;;;;;;5069247;28;1895;-79
2021/12/25 17:09:17;;;;;;;;;;;;;;;;;;5088414;28;1152;-79
2021/12/25 17:11:42;;;;;;;;;;;;;;;;;;5052552;28;1368;-78
2021/12/25 17:14:07;;;;;;;;;;;;;;;;;;5087915;28;1097;-79
2021/12/25 17:16:36;;;;;;;;;;;;;;;;;;5089088;28;1224;-80
2021/12/25 17:19:03;;;;;;;;;;;;;;;;;;5051845;28;1295;-78
2021/12/25 17:21:29;;;;;;;;;;;;;;;;;;5070839;28;1497;-79
2021/12/25 17:23:54;;;;;;;;;;;;;;;;;;5067974;28;1172;-79
2021/12/25 17:26:19;;;;;;;;;;;;;;;;;;5070228;28;1890;-79
2021/12/25 17:28:52;;;;;;;;;;;;;;;;;;5053850;28;1298;-81
2021/12/25 17:31:18;;;;;;;;;;;;;;;;;;5053060;28;1174;-79
2021/12/25 17:33:47;;;;;;;;;;;;;;;;;;5066061;28;1172;-78
2021/12/25 17:36:12;;;;;;;;;;;;;;;;;;5085496;28;1141;-79
2021/12/25 17:38:42;;;;;;;;;;;;;;;;;;5070660;28;1184;-79
2021/12/25 17:41:10;;;;;;;;;;;;;;;;;;5090480;28;1200;-79
2021/12/25 17:43:36;;;;;;;;;;;;;;;;;;5072666;28;1207;-79
2021/12/25 17:46:02;;;;;;;;;;;;;;;;;;5071834;28;1951;-79
2021/12/25 17:48:29;;;;;;;;;;;;;;;;;;5091150;28;1141;-79
2021/12/25 17:50:55;;;;;;;;;;;;;;;;;;5071706;28;1724;-78
2021/12/25 17:53:20;;;;;;;;;;;;;;;;;;5073411;28;1240;-79
2021/12/25 17:55:46;;;;;;;;;;;;;;;;;;5072448;28;1126;-79
2021/12/25 17:58:11;;;;;;;;;;;;;;;;;;5072922;28;1283;-78
2021/12/25 18:00:41;;;;;;;;;;;;;;;;;;5070603;28;1223;-78
2021/12/25 18:03:07;;;;;;;;;;;;;;;;;;5072490;28;1280;-80
2021/12/25 18:05:33;;;;;;;;;;;;;;;;;;5056721;28;1890;-79
2021/12/25 18:07:58;;;;;;;;;;;;;;;;;;5089476;28;1153;-79
2021/12/25 18:10:23;;;;;;;;;;;;;;;;;;5075323;28;1281;-80
2021/12/25 18:12:49;;;;;;;;;;;;;;;;;;5072988;28;1225;-79
2021/12/25 18:15:16;;;;;;;;;;;;;;;;;;5054804;28;1308;-78
2021/12/25 18:17:42;;;;;;;;;;;;;;;;;;5071874;28;1218;-79
2021/12/25 18:20:10;;;;;;;;;;;;;;;;;;5074044;28;1196;-80
2021/12/25 18:22:38;;;;;;;;;;;;;;;;;;5107290;28;1285;-79
2021/12/25 18:25:05;;;;;;;;;;;;;;;;;;5056564;28;1149;-78